sensor_id;sensor_type;location;lat;lon;timestamp;P1;durP1;ratioP1;P2;durP2;ratioP2
8213;SDS011;4148;47.974;7.824;2023-08-08T00:02:08;2.23;;;1.40;;
8213;SDS011;4148;47.974;7.824;2023-08-08T00:04:36;3.77;;;1.80;;
8213;SDS011;4148;47.974;7.824;2023-08-08T00:07:04;2.00;;;1.43;;
8213;SDS011;4148;47.974;7.824;2023-08-08T00:09:32;5.77;;;1.80;;
8213;SDS011;4148;47.974;7.824;2023-08-08T00:12:01;4.87;;;2.23;;
8213;SDS011;4148;47.974;7.824;2023-08-08T00:14:30;3.40;;;1.50;;
8213;SDS011;4148;47.974;7.824;2023-08-08T00:16:58;2.53;;;1.87;;
8213;SDS011;4148;47.974;7.824;2023-08-08T00:19:26;3.13;;;1.90;;
8213;SDS011;4148;47.974;7.824;2023-08-08T00:21:54;3.60;;;2.07;;
8213;SDS011;4148;47.974;7.824;2023-08-08T00:24:22;2.00;;;1.70;;
8213;SDS011;4148;47.974;7.824;2023-08-08T00:26:50;4.00;;;2.00;;
8213;SDS011;4148;47.974;7.824;2023-08-08T00:29:18;2.00;;;1.40;;
8213;SDS011;4148;47.974;7.824;2023-08-08T00:31:47;3.40;;;2.20;;
8213;SDS011;4148;47.974;7.824;2023-08-08T00:34:15;3.27;;;1.50;;
8213;SDS011;4148;47.974;7.824;2023-08-08T00:36:42;2.90;;;1.57;;
8213;SDS011;4148;47.974;7.824;2023-08-08T00:39:10;3.83;;;1.87;;
8213;SDS011;4148;47.974;7.824;2023-08-08T00:41:38;3.13;;;1.83;;
8213;SDS011;4148;47.974;7.824;2023-08-08T00:44:06;3.47;;;1.73;;
8213;SDS011;4148;47.974;7.824;2023-08-08T00:46:34;2.90;;;1.70;;
8213;SDS011;4148;47.974;7.824;2023-08-08T00:49:03;2.90;;;1.80;;
8213;SDS011;4148;47.974;7.824;2023-08-08T00:51:31;2.30;;;1.50;;
8213;SDS011;4148;47.974;7.824;2023-08-08T00:53:59;2.90;;;2.00;;
8213;SDS011;4148;47.974;7.824;2023-08-08T00:56:28;2.50;;;1.70;;
8213;SDS011;4148;47.974;7.824;2023-08-08T00:58:56;2.00;;;1.50;;
8213;SDS011;4148;47.974;7.824;2023-08-08T01:01:25;3.80;;;1.97;;
8213;SDS011;4148;47.974;7.824;2023-08-08T01:03:53;2.30;;;1.60;;
8213;SDS011;4148;47.974;7.824;2023-08-08T01:06:23;3.17;;;1.80;;
8213;SDS011;4148;47.974;7.824;2023-08-08T01:09:00;2.70;;;2.07;;
8213;SDS011;4148;47.974;7.824;2023-08-08T01:11:32;3.40;;;2.10;;
8213;SDS011;4148;47.974;7.824;2023-08-08T01:14:01;1.53;;;1.37;;
8213;SDS011;4148;47.974;7.824;2023-08-08T01:16:31;4.10;;;1.97;;
8213;SDS011;4148;47.974;7.824;2023-08-08T01:18:59;2.17;;;1.70;;
8213;SDS011;4148;47.974;7.824;2023-08-08T01:21:29;6.30;;;1.77;;
8213;SDS011;4148;47.974;7.824;2023-08-08T01:24:11;2.43;;;1.50;;
8213;SDS011;4148;47.974;7.824;2023-08-08T01:26:42;3.83;;;1.77;;
8213;SDS011;4148;47.974;7.824;2023-08-08T01:29:10;2.97;;;1.70;;
8213;SDS011;4148;47.974;7.824;2023-08-08T01:31:38;4.90;;;1.63;;
8213;SDS011;4148;47.974;7.824;2023-08-08T01:34:06;5.57;;;1.70;;
8213;SDS011;4148;47.974;7.824;2023-08-08T01:36:35;3.13;;;1.53;;
8213;SDS011;4148;47.974;7.824;2023-08-08T01:39:09;3.33;;;1.50;;
8213;SDS011;4148;47.974;7.824;2023-08-08T01:41:41;3.40;;;1.90;;
8213;SDS011;4148;47.974;7.824;2023-08-08T01:44:10;2.27;;;1.50;;
8213;SDS011;4148;47.974;7.824;2023-08-08T01:46:39;3.37;;;1.33;;
8213;SDS011;4148;47.974;7.824;2023-08-08T01:49:07;3.60;;;1.87;;
8213;SDS011;4148;47.974;7.824;2023-08-08T01:51:35;4.40;;;1.43;;
8213;SDS011;4148;47.974;7.824;2023-08-08T01:54:03;3.50;;;1.67;;
8213;SDS011;4148;47.974;7.824;2023-08-08T01:56:32;1.97;;;1.40;;
8213;SDS011;4148;47.974;7.824;2023-08-08T01:59:00;2.37;;;1.40;;
8213;SDS011;4148;47.974;7.824;2023-08-08T02:01:28;2.87;;;1.63;;
8213;SDS011;4148;47.974;7.824;2023-08-08T02:03:56;2.27;;;1.60;;
8213;SDS011;4148;47.974;7.824;2023-08-08T02:06:24;2.73;;;1.67;;
8213;SDS011;4148;47.974;7.824;2023-08-08T02:08:51;3.47;;;1.60;;
8213;SDS011;4148;47.974;7.824;2023-08-08T02:11:19;3.80;;;1.83;;
8213;SDS011;4148;47.974;7.824;2023-08-08T02:13:50;2.77;;;1.70;;
8213;SDS011;4148;47.974;7.824;2023-08-08T02:16:17;2.03;;;1.40;;
8213;SDS011;4148;47.974;7.824;2023-08-08T02:18:45;4.73;;;1.80;;
8213;SDS011;4148;47.974;7.824;2023-08-08T02:21:13;2.83;;;1.77;;
8213;SDS011;4148;47.974;7.824;2023-08-08T02:23:41;2.10;;;1.50;;
8213;SDS011;4148;47.974;7.824;2023-08-08T02:26:09;2.47;;;1.80;;
8213;SDS011;4148;47.974;7.824;2023-08-08T02:28:37;2.60;;;1.70;;
8213;SDS011;4148;47.974;7.824;2023-08-08T02:31:06;2.00;;;1.57;;
8213;SDS011;4148;47.974;7.824;2023-08-08T02:33:34;1.83;;;1.50;;
8213;SDS011;4148;47.974;7.824;2023-08-08T02:36:02;2.33;;;1.93;;
8213;SDS011;4148;47.974;7.824;2023-08-08T02:38:30;3.40;;;1.73;;
8213;SDS011;4148;47.974;7.824;2023-08-08T02:40:58;3.13;;;1.63;;
8213;SDS011;4148;47.974;7.824;2023-08-08T02:43:26;4.30;;;2.23;;
8213;SDS011;4148;47.974;7.824;2023-08-08T02:45:54;2.50;;;1.80;;
8213;SDS011;4148;47.974;7.824;2023-08-08T02:48:23;6.13;;;1.70;;
8213;SDS011;4148;47.974;7.824;2023-08-08T02:50:51;3.00;;;2.03;;
8213;SDS011;4148;47.974;7.824;2023-08-08T02:53:19;2.43;;;1.47;;
8213;SDS011;4148;47.974;7.824;2023-08-08T02:55:47;2.67;;;1.77;;
8213;SDS011;4148;47.974;7.824;2023-08-08T02:58:15;2.37;;;1.70;;
8213;SDS011;4148;47.974;7.824;2023-08-08T03:00:42;2.80;;;2.30;;
8213;SDS011;4148;47.974;7.824;2023-08-08T03:03:10;3.40;;;2.00;;
8213;SDS011;4148;47.974;7.824;2023-08-08T03:05:39;2.10;;;1.60;;
8213;SDS011;4148;47.974;7.824;2023-08-08T03:08:07;4.50;;;2.20;;
8213;SDS011;4148;47.974;7.824;2023-08-08T03:10:35;3.03;;;2.17;;
8213;SDS011;4148;47.974;7.824;2023-08-08T03:13:03;2.93;;;1.80;;
8213;SDS011;4148;47.974;7.824;2023-08-08T03:15:31;2.17;;;1.60;;
8213;SDS011;4148;47.974;7.824;2023-08-08T03:17:59;2.60;;;1.70;;
8213;SDS011;4148;47.974;7.824;2023-08-08T03:20:27;4.30;;;2.20;;
8213;SDS011;4148;47.974;7.824;2023-08-08T03:22:56;2.17;;;1.90;;
8213;SDS011;4148;47.974;7.824;2023-08-08T03:25:24;2.80;;;1.60;;
8213;SDS011;4148;47.974;7.824;2023-08-08T03:27:52;3.20;;;1.80;;
8213;SDS011;4148;47.974;7.824;2023-08-08T03:30:20;6.63;;;2.00;;
8213;SDS011;4148;47.974;7.824;2023-08-08T03:32:48;2.50;;;1.70;;
8213;SDS011;4148;47.974;7.824;2023-08-08T03:35:16;3.20;;;1.53;;
8213;SDS011;4148;47.974;7.824;2023-08-08T03:37:44;4.53;;;1.77;;
8213;SDS011;4148;47.974;7.824;2023-08-08T03:40:13;3.70;;;1.80;;
8213;SDS011;4148;47.974;7.824;2023-08-08T03:42:41;4.00;;;1.70;;
8213;SDS011;4148;47.974;7.824;2023-08-08T03:45:10;2.83;;;1.73;;
8213;SDS011;4148;47.974;7.824;2023-08-08T03:47:38;3.77;;;2.10;;
8213;SDS011;4148;47.974;7.824;2023-08-08T03:50:06;2.80;;;1.93;;
8213;SDS011;4148;47.974;7.824;2023-08-08T03:52:36;3.47;;;2.00;;
8213;SDS011;4148;47.974;7.824;2023-08-08T03:55:04;3.73;;;1.73;;
8213;SDS011;4148;47.974;7.824;2023-08-08T03:57:33;2.87;;;1.90;;
8213;SDS011;4148;47.974;7.824;2023-08-08T04:00:02;3.50;;;1.90;;
8213;SDS011;4148;47.974;7.824;2023-08-08T04:02:31;2.83;;;1.70;;
8213;SDS011;4148;47.974;7.824;2023-08-08T04:04:59;2.30;;;1.63;;
8213;SDS011;4148;47.974;7.824;2023-08-08T04:07:26;2.23;;;1.60;;
8213;SDS011;4148;47.974;7.824;2023-08-08T04:09:54;2.13;;;1.60;;
8213;SDS011;4148;47.974;7.824;2023-08-08T04:12:22;2.73;;;1.87;;
8213;SDS011;4148;47.974;7.824;2023-08-08T04:14:51;3.30;;;2.00;;
8213;SDS011;4148;47.974;7.824;2023-08-08T04:17:19;3.67;;;1.47;;
8213;SDS011;4148;47.974;7.824;2023-08-08T04:19:47;2.17;;;1.63;;
8213;SDS011;4148;47.974;7.824;2023-08-08T04:22:15;3.90;;;2.10;;
8213;SDS011;4148;47.974;7.824;2023-08-08T04:24:43;2.83;;;1.97;;
8213;SDS011;4148;47.974;7.824;2023-08-08T04:27:11;3.90;;;2.13;;
8213;SDS011;4148;47.974;7.824;2023-08-08T04:29:39;3.60;;;2.00;;
8213;SDS011;4148;47.974;7.824;2023-08-08T04:32:08;2.37;;;1.97;;
8213;SDS011;4148;47.974;7.824;2023-08-08T04:34:36;2.63;;;2.10;;
8213;SDS011;4148;47.974;7.824;2023-08-08T04:37:04;4.37;;;2.13;;
8213;SDS011;4148;47.974;7.824;2023-08-08T04:39:32;3.83;;;1.80;;
8213;SDS011;4148;47.974;7.824;2023-08-08T04:42:00;2.93;;;2.17;;
8213;SDS011;4148;47.974;7.824;2023-08-08T04:44:28;3.50;;;2.23;;
8213;SDS011;4148;47.974;7.824;2023-08-08T04:46:57;8.90;;;2.50;;
8213;SDS011;4148;47.974;7.824;2023-08-08T04:49:26;2.87;;;2.07;;
8213;SDS011;4148;47.974;7.824;2023-08-08T04:51:55;4.73;;;2.93;;
8213;SDS011;4148;47.974;7.824;2023-08-08T04:54:23;5.27;;;3.17;;
8213;SDS011;4148;47.974;7.824;2023-08-08T04:56:51;3.17;;;2.03;;
8213;SDS011;4148;47.974;7.824;2023-08-08T04:59:19;2.60;;;1.97;;
8213;SDS011;4148;47.974;7.824;2023-08-08T05:01:47;2.57;;;2.03;;
8213;SDS011;4148;47.974;7.824;2023-08-08T05:04:14;2.73;;;2.13;;
8213;SDS011;4148;47.974;7.824;2023-08-08T05:06:44;3.40;;;2.07;;
8213;SDS011;4148;47.974;7.824;2023-08-08T05:09:12;3.27;;;2.03;;
8213;SDS011;4148;47.974;7.824;2023-08-08T05:11:40;2.13;;;1.90;;
8213;SDS011;4148;47.974;7.824;2023-08-08T05:14:08;3.43;;;1.80;;
8213;SDS011;4148;47.974;7.824;2023-08-08T05:16:35;2.60;;;2.00;;
8213;SDS011;4148;47.974;7.824;2023-08-08T05:19:04;3.67;;;2.00;;
8213;SDS011;4148;47.974;7.824;2023-08-08T05:21:31;2.70;;;2.30;;
8213;SDS011;4148;47.974;7.824;2023-08-08T05:24:01;2.73;;;2.17;;
8213;SDS011;4148;47.974;7.824;2023-08-08T05:26:28;2.60;;;1.90;;
8213;SDS011;4148;47.974;7.824;2023-08-08T05:28:56;2.10;;;1.90;;
8213;SDS011;4148;47.974;7.824;2023-08-08T05:31:24;5.43;;;1.87;;
8213;SDS011;4148;47.974;7.824;2023-08-08T05:33:52;5.20;;;1.93;;
8213;SDS011;4148;47.974;7.824;2023-08-08T05:36:20;2.73;;;1.90;;
8213;SDS011;4148;47.974;7.824;2023-08-08T05:38:48;3.37;;;2.00;;
8213;SDS011;4148;47.974;7.824;2023-08-08T05:41:17;3.50;;;1.80;;
8213;SDS011;4148;47.974;7.824;2023-08-08T05:43:45;4.63;;;2.27;;
8213;SDS011;4148;47.974;7.824;2023-08-08T05:46:13;2.43;;;1.90;;
8213;SDS011;4148;47.974;7.824;2023-08-08T05:48:41;5.50;;;2.00;;
8213;SDS011;4148;47.974;7.824;2023-08-08T05:51:10;3.90;;;2.20;;
8213;SDS011;4148;47.974;7.824;2023-08-08T05:53:37;11.10;;;2.30;;
8213;SDS011;4148;47.974;7.824;2023-08-08T05:56:05;6.43;;;2.40;;
8213;SDS011;4148;47.974;7.824;2023-08-08T05:58:36;2.60;;;2.10;;
8213;SDS011;4148;47.974;7.824;2023-08-08T06:01:04;4.27;;;1.93;;
8213;SDS011;4148;47.974;7.824;2023-08-08T06:03:32;2.10;;;1.80;;
8213;SDS011;4148;47.974;7.824;2023-08-08T06:06:00;2.20;;;1.80;;
8213;SDS011;4148;47.974;7.824;2023-08-08T06:08:28;4.77;;;1.80;;
8213;SDS011;4148;47.974;7.824;2023-08-08T06:10:56;2.33;;;1.87;;
8213;SDS011;4148;47.974;7.824;2023-08-08T06:13:24;2.40;;;2.10;;
8213;SDS011;4148;47.974;7.824;2023-08-08T06:15:53;2.80;;;1.90;;
8213;SDS011;4148;47.974;7.824;2023-08-08T06:18:21;3.07;;;2.30;;
8213;SDS011;4148;47.974;7.824;2023-08-08T06:20:49;7.00;;;3.57;;
8213;SDS011;4148;47.974;7.824;2023-08-08T06:23:16;4.93;;;2.93;;
8213;SDS011;4148;47.974;7.824;2023-08-08T06:25:44;4.00;;;1.90;;
8213;SDS011;4148;47.974;7.824;2023-08-08T06:28:12;3.53;;;1.90;;
8213;SDS011;4148;47.974;7.824;2023-08-08T06:30:40;4.30;;;2.30;;
8213;SDS011;4148;47.974;7.824;2023-08-08T06:33:09;3.10;;;2.17;;
8213;SDS011;4148;47.974;7.824;2023-08-08T06:35:38;3.07;;;1.90;;
8213;SDS011;4148;47.974;7.824;2023-08-08T06:38:06;2.47;;;1.87;;
8213;SDS011;4148;47.974;7.824;2023-08-08T06:40:35;3.30;;;2.03;;
8213;SDS011;4148;47.974;7.824;2023-08-08T06:43:04;3.20;;;1.90;;
8213;SDS011;4148;47.974;7.824;2023-08-08T06:45:32;3.10;;;2.50;;
8213;SDS011;4148;47.974;7.824;2023-08-08T06:48:00;3.07;;;1.93;;
8213;SDS011;4148;47.974;7.824;2023-08-08T06:50:30;4.53;;;1.87;;
8213;SDS011;4148;47.974;7.824;2023-08-08T06:52:58;4.30;;;2.07;;
8213;SDS011;4148;47.974;7.824;2023-08-08T06:55:25;2.50;;;1.90;;
8213;SDS011;4148;47.974;7.824;2023-08-08T06:57:53;3.17;;;2.00;;
8213;SDS011;4148;47.974;7.824;2023-08-08T07:00:21;5.23;;;2.03;;
8213;SDS011;4148;47.974;7.824;2023-08-08T07:02:49;6.47;;;2.10;;
8213;SDS011;4148;47.974;7.824;2023-08-08T07:05:17;4.23;;;2.07;;
8213;SDS011;4148;47.974;7.824;2023-08-08T07:07:46;3.93;;;2.00;;
8213;SDS011;4148;47.974;7.824;2023-08-08T07:10:14;2.83;;;2.03;;
8213;SDS011;4148;47.974;7.824;2023-08-08T07:12:42;2.63;;;1.90;;
8213;SDS011;4148;47.974;7.824;2023-08-08T07:15:10;2.57;;;1.90;;
8213;SDS011;4148;47.974;7.824;2023-08-08T07:17:39;6.27;;;2.00;;
8213;SDS011;4148;47.974;7.824;2023-08-08T07:20:07;2.53;;;1.57;;
8213;SDS011;4148;47.974;7.824;2023-08-08T07:22:39;2.40;;;1.77;;
8213;SDS011;4148;47.974;7.824;2023-08-08T07:25:09;9.60;;;2.07;;
8213;SDS011;4148;47.974;7.824;2023-08-08T07:27:37;3.20;;;2.00;;
8213;SDS011;4148;47.974;7.824;2023-08-08T07:30:05;3.27;;;1.93;;
8213;SDS011;4148;47.974;7.824;2023-08-08T07:32:35;4.73;;;2.13;;
8213;SDS011;4148;47.974;7.824;2023-08-08T07:35:03;2.77;;;1.87;;
8213;SDS011;4148;47.974;7.824;2023-08-08T07:37:32;5.67;;;2.23;;
8213;SDS011;4148;47.974;7.824;2023-08-08T07:40:00;3.30;;;1.90;;
8213;SDS011;4148;47.974;7.824;2023-08-08T07:42:30;2.70;;;1.90;;
8213;SDS011;4148;47.974;7.824;2023-08-08T07:44:58;3.10;;;1.93;;
8213;SDS011;4148;47.974;7.824;2023-08-08T07:47:26;2.80;;;1.93;;
8213;SDS011;4148;47.974;7.824;2023-08-08T07:49:55;4.93;;;1.90;;
8213;SDS011;4148;47.974;7.824;2023-08-08T07:52:23;6.23;;;2.20;;
8213;SDS011;4148;47.974;7.824;2023-08-08T07:54:51;2.40;;;1.60;;
8213;SDS011;4148;47.974;7.824;2023-08-08T07:57:19;5.07;;;2.37;;
8213;SDS011;4148;47.974;7.824;2023-08-08T07:59:48;3.50;;;1.70;;
8213;SDS011;4148;47.974;7.824;2023-08-08T08:02:16;3.57;;;1.87;;
8213;SDS011;4148;47.974;7.824;2023-08-08T08:04:44;1.97;;;1.60;;
8213;SDS011;4148;47.974;7.824;2023-08-08T08:07:12;3.67;;;1.73;;
8213;SDS011;4148;47.974;7.824;2023-08-08T08:09:40;4.73;;;1.80;;
8213;SDS011;4148;47.974;7.824;2023-08-08T08:12:08;4.23;;;2.10;;
8213;SDS011;4148;47.974;7.824;2023-08-08T08:14:36;6.63;;;1.90;;
8213;SDS011;4148;47.974;7.824;2023-08-08T08:17:06;2.33;;;1.80;;
8213;SDS011;4148;47.974;7.824;2023-08-08T08:19:34;2.17;;;1.77;;
8213;SDS011;4148;47.974;7.824;2023-08-08T08:22:02;2.63;;;1.67;;
8213;SDS011;4148;47.974;7.824;2023-08-08T08:24:30;2.10;;;1.60;;
8213;SDS011;4148;47.974;7.824;2023-08-08T08:26:58;2.80;;;1.80;;
8213;SDS011;4148;47.974;7.824;2023-08-08T08:29:26;2.77;;;1.80;;
8213;SDS011;4148;47.974;7.824;2023-08-08T08:31:54;3.03;;;1.57;;
8213;SDS011;4148;47.974;7.824;2023-08-08T08:34:24;2.50;;;1.50;;
8213;SDS011;4148;47.974;7.824;2023-08-08T08:36:51;2.63;;;1.50;;
8213;SDS011;4148;47.974;7.824;2023-08-08T08:39:19;2.83;;;1.77;;
8213;SDS011;4148;47.974;7.824;2023-08-08T08:41:48;3.07;;;1.50;;
8213;SDS011;4148;47.974;7.824;2023-08-08T08:44:17;2.73;;;1.70;;
8213;SDS011;4148;47.974;7.824;2023-08-08T08:46:48;3.03;;;1.87;;
8213;SDS011;4148;47.974;7.824;2023-08-08T08:49:19;2.37;;;1.30;;
8213;SDS011;4148;47.974;7.824;2023-08-08T08:51:50;1.80;;;1.40;;
8213;SDS011;4148;47.974;7.824;2023-08-08T08:54:18;2.77;;;2.27;;
8213;SDS011;4148;47.974;7.824;2023-08-08T08:56:47;2.60;;;1.97;;
8213;SDS011;4148;47.974;7.824;2023-08-08T08:59:15;3.23;;;1.70;;
8213;SDS011;4148;47.974;7.824;2023-08-08T09:01:43;2.80;;;2.10;;
8213;SDS011;4148;47.974;7.824;2023-08-08T09:04:11;2.17;;;1.47;;
8213;SDS011;4148;47.974;7.824;2023-08-08T09:06:42;3.30;;;1.73;;
8213;SDS011;4148;47.974;7.824;2023-08-08T09:09:13;2.83;;;1.60;;
8213;SDS011;4148;47.974;7.824;2023-08-08T09:11:42;2.30;;;1.90;;
8213;SDS011;4148;47.974;7.824;2023-08-08T09:14:15;3.53;;;1.67;;
8213;SDS011;4148;47.974;7.824;2023-08-08T09:16:43;3.30;;;1.80;;
8213;SDS011;4148;47.974;7.824;2023-08-08T09:19:12;3.50;;;2.07;;
8213;SDS011;4148;47.974;7.824;2023-08-08T09:21:41;2.83;;;1.90;;
8213;SDS011;4148;47.974;7.824;2023-08-08T09:24:09;2.60;;;1.50;;
8213;SDS011;4148;47.974;7.824;2023-08-08T09:26:40;8.27;;;1.73;;
8213;SDS011;4148;47.974;7.824;2023-08-08T09:29:08;3.93;;;2.13;;
8213;SDS011;4148;47.974;7.824;2023-08-08T09:31:37;3.57;;;2.00;;
8213;SDS011;4148;47.974;7.824;2023-08-08T09:34:06;2.27;;;1.40;;
8213;SDS011;4148;47.974;7.824;2023-08-08T09:36:34;3.00;;;1.97;;
8213;SDS011;4148;47.974;7.824;2023-08-08T09:39:03;3.63;;;1.60;;
8213;SDS011;4148;47.974;7.824;2023-08-08T09:41:31;2.53;;;1.97;;
8213;SDS011;4148;47.974;7.824;2023-08-08T09:44:01;2.80;;;1.97;;
8213;SDS011;4148;47.974;7.824;2023-08-08T09:46:29;2.03;;;1.73;;
8213;SDS011;4148;47.974;7.824;2023-08-08T09:48:57;2.13;;;1.40;;
8213;SDS011;4148;47.974;7.824;2023-08-08T09:51:26;2.37;;;1.60;;
8213;SDS011;4148;47.974;7.824;2023-08-08T09:53:54;2.87;;;1.67;;
8213;SDS011;4148;47.974;7.824;2023-08-08T09:56:23;2.30;;;1.63;;
8213;SDS011;4148;47.974;7.824;2023-08-08T09:58:52;2.50;;;1.90;;
8213;SDS011;4148;47.974;7.824;2023-08-08T10:01:21;3.10;;;1.53;;
8213;SDS011;4148;47.974;7.824;2023-08-08T10:03:49;2.70;;;1.80;;
8213;SDS011;4148;47.974;7.824;2023-08-08T10:06:19;2.00;;;1.60;;
8213;SDS011;4148;47.974;7.824;2023-08-08T10:08:47;2.10;;;1.63;;
8213;SDS011;4148;47.974;7.824;2023-08-08T10:11:15;2.90;;;1.80;;
8213;SDS011;4148;47.974;7.824;2023-08-08T10:13:47;2.27;;;1.80;;
8213;SDS011;4148;47.974;7.824;2023-08-08T10:16:16;1.93;;;1.53;;
8213;SDS011;4148;47.974;7.824;2023-08-08T10:18:46;2.00;;;1.40;;
8213;SDS011;4148;47.974;7.824;2023-08-08T10:21:23;2.47;;;1.60;;
8213;SDS011;4148;47.974;7.824;2023-08-08T10:24:00;3.40;;;1.80;;
8213;SDS011;4148;47.974;7.824;2023-08-08T10:26:29;3.00;;;1.50;;
8213;SDS011;4148;47.974;7.824;2023-08-08T10:28:58;2.30;;;1.60;;
8213;SDS011;4148;47.974;7.824;2023-08-08T10:31:27;2.00;;;1.50;;
8213;SDS011;4148;47.974;7.824;2023-08-08T10:34:02;1.80;;;1.53;;
8213;SDS011;4148;47.974;7.824;2023-08-08T10:36:42;2.30;;;1.57;;
8213;SDS011;4148;47.974;7.824;2023-08-08T10:39:14;4.03;;;1.73;;
8213;SDS011;4148;47.974;7.824;2023-08-08T10:41:44;2.10;;;1.57;;
8213;SDS011;4148;47.974;7.824;2023-08-08T10:44:13;1.90;;;1.60;;
8213;SDS011;4148;47.974;7.824;2023-08-08T10:46:48;2.13;;;1.60;;
8213;SDS011;4148;47.974;7.824;2023-08-08T10:49:18;3.10;;;1.70;;
8213;SDS011;4148;47.974;7.824;2023-08-08T10:51:46;2.17;;;1.97;;
8213;SDS011;4148;47.974;7.824;2023-08-08T10:54:16;4.13;;;1.80;;
8213;SDS011;4148;47.974;7.824;2023-08-08T10:56:48;2.43;;;1.53;;
8213;SDS011;4148;47.974;7.824;2023-08-08T10:59:18;2.00;;;1.50;;
8213;SDS011;4148;47.974;7.824;2023-08-08T11:01:49;1.87;;;1.53;;
8213;SDS011;4148;47.974;7.824;2023-08-08T11:04:20;2.27;;;1.97;;
8213;SDS011;4148;47.974;7.824;2023-08-08T11:06:50;1.90;;;1.43;;
8213;SDS011;4148;47.974;7.824;2023-08-08T11:09:20;2.87;;;1.67;;
8213;SDS011;4148;47.974;7.824;2023-08-08T11:11:48;1.87;;;1.50;;
8213;SDS011;4148;47.974;7.824;2023-08-08T11:14:17;2.77;;;1.70;;
8213;SDS011;4148;47.974;7.824;2023-08-08T11:16:48;2.47;;;1.77;;
8213;SDS011;4148;47.974;7.824;2023-08-08T11:19:17;2.80;;;1.60;;
8213;SDS011;4148;47.974;7.824;2023-08-08T11:21:47;1.70;;;1.30;;
8213;SDS011;4148;47.974;7.824;2023-08-08T11:24:15;2.10;;;1.60;;
8213;SDS011;4148;47.974;7.824;2023-08-08T11:26:44;3.83;;;1.40;;
8213;SDS011;4148;47.974;7.824;2023-08-08T11:29:14;2.20;;;1.80;;
8213;SDS011;4148;47.974;7.824;2023-08-08T11:31:42;4.27;;;1.93;;
8213;SDS011;4148;47.974;7.824;2023-08-08T11:34:10;2.57;;;1.70;;
8213;SDS011;4148;47.974;7.824;2023-08-08T11:36:40;2.30;;;1.53;;
8213;SDS011;4148;47.974;7.824;2023-08-08T11:39:08;3.20;;;2.03;;
8213;SDS011;4148;47.974;7.824;2023-08-08T11:41:37;4.40;;;1.83;;
8213;SDS011;4148;47.974;7.824;2023-08-08T11:44:07;2.13;;;1.63;;
8213;SDS011;4148;47.974;7.824;2023-08-08T11:46:35;1.80;;;1.50;;
8213;SDS011;4148;47.974;7.824;2023-08-08T11:49:13;2.70;;;1.67;;
8213;SDS011;4148;47.974;7.824;2023-08-08T11:51:43;3.50;;;1.57;;
8213;SDS011;4148;47.974;7.824;2023-08-08T11:54:13;2.13;;;1.57;;
8213;SDS011;4148;47.974;7.824;2023-08-08T11:56:41;2.70;;;1.77;;
8213;SDS011;4148;47.974;7.824;2023-08-08T11:59:09;2.73;;;1.80;;
8213;SDS011;4148;47.974;7.824;2023-08-08T12:01:38;2.83;;;1.77;;
8213;SDS011;4148;47.974;7.824;2023-08-08T12:04:08;2.00;;;1.47;;
8213;SDS011;4148;47.974;7.824;2023-08-08T12:06:36;1.70;;;1.50;;
8213;SDS011;4148;47.974;7.824;2023-08-08T12:09:07;2.63;;;1.77;;
8213;SDS011;4148;47.974;7.824;2023-08-08T12:11:38;2.47;;;1.77;;
8213;SDS011;4148;47.974;7.824;2023-08-08T12:14:07;2.77;;;1.83;;
8213;SDS011;4148;47.974;7.824;2023-08-08T12:16:36;2.13;;;1.67;;
8213;SDS011;4148;47.974;7.824;2023-08-08T12:19:06;2.20;;;1.50;;
8213;SDS011;4148;47.974;7.824;2023-08-08T12:21:37;1.90;;;1.60;;
8213;SDS011;4148;47.974;7.824;2023-08-08T12:24:05;2.80;;;1.80;;
8213;SDS011;4148;47.974;7.824;2023-08-08T12:26:35;1.80;;;1.50;;
8213;SDS011;4148;47.974;7.824;2023-08-08T12:29:03;2.57;;;1.70;;
8213;SDS011;4148;47.974;7.824;2023-08-08T12:31:31;2.47;;;1.90;;
8213;SDS011;4148;47.974;7.824;2023-08-08T12:33:59;3.77;;;1.60;;
8213;SDS011;4148;47.974;7.824;2023-08-08T12:36:28;2.03;;;1.63;;
8213;SDS011;4148;47.974;7.824;2023-08-08T12:38:55;2.03;;;1.53;;
8213;SDS011;4148;47.974;7.824;2023-08-08T12:41:25;2.20;;;1.90;;
8213;SDS011;4148;47.974;7.824;2023-08-08T12:43:53;2.30;;;1.87;;
8213;SDS011;4148;47.974;7.824;2023-08-08T12:46:21;2.80;;;1.77;;
8213;SDS011;4148;47.974;7.824;2023-08-08T12:48:49;3.10;;;1.73;;
8213;SDS011;4148;47.974;7.824;2023-08-08T12:51:17;1.80;;;1.30;;
8213;SDS011;4148;47.974;7.824;2023-08-08T12:53:45;2.83;;;2.17;;
8213;SDS011;4148;47.974;7.824;2023-08-08T12:56:13;3.67;;;1.80;;
8213;SDS011;4148;47.974;7.824;2023-08-08T12:58:42;4.77;;;1.80;;
8213;SDS011;4148;47.974;7.824;2023-08-08T13:01:10;2.40;;;1.57;;
8213;SDS011;4148;47.974;7.824;2023-08-08T13:03:38;2.87;;;2.03;;
8213;SDS011;4148;47.974;7.824;2023-08-08T13:06:13;2.47;;;1.60;;
8213;SDS011;4148;47.974;7.824;2023-08-08T13:08:40;4.13;;;2.03;;
8213;SDS011;4148;47.974;7.824;2023-08-08T13:11:08;2.27;;;2.00;;
8213;SDS011;4148;47.974;7.824;2023-08-08T13:13:36;2.40;;;1.70;;
8213;SDS011;4148;47.974;7.824;2023-08-08T13:16:05;2.50;;;1.93;;
8213;SDS011;4148;47.974;7.824;2023-08-08T13:18:33;7.00;;;2.40;;
8213;SDS011;4148;47.974;7.824;2023-08-08T13:21:01;2.30;;;1.97;;
8213;SDS011;4148;47.974;7.824;2023-08-08T13:23:32;2.83;;;2.00;;
8213;SDS011;4148;47.974;7.824;2023-08-08T13:25:59;2.37;;;1.80;;
8213;SDS011;4148;47.974;7.824;2023-08-08T13:28:29;3.00;;;1.77;;
8213;SDS011;4148;47.974;7.824;2023-08-08T13:30:57;4.70;;;1.67;;
8213;SDS011;4148;47.974;7.824;2023-08-08T13:33:27;4.57;;;2.87;;
8213;SDS011;4148;47.974;7.824;2023-08-08T13:35:55;3.00;;;2.70;;
8213;SDS011;4148;47.974;7.824;2023-08-08T13:38:22;5.03;;;2.80;;
8213;SDS011;4148;47.974;7.824;2023-08-08T13:40:50;3.07;;;2.60;;
8213;SDS011;4148;47.974;7.824;2023-08-08T13:43:18;2.73;;;2.30;;
8213;SDS011;4148;47.974;7.824;2023-08-08T13:45:46;2.47;;;1.83;;
8213;SDS011;4148;47.974;7.824;2023-08-08T13:48:14;6.53;;;2.17;;
8213;SDS011;4148;47.974;7.824;2023-08-08T13:50:43;5.77;;;2.03;;
8213;SDS011;4148;47.974;7.824;2023-08-08T13:53:11;3.90;;;2.10;;
8213;SDS011;4148;47.974;7.824;2023-08-08T13:55:39;3.20;;;2.17;;
8213;SDS011;4148;47.974;7.824;2023-08-08T13:58:07;2.77;;;2.00;;
8213;SDS011;4148;47.974;7.824;2023-08-08T14:00:35;2.97;;;2.30;;
8213;SDS011;4148;47.974;7.824;2023-08-08T14:03:03;2.40;;;1.70;;
8213;SDS011;4148;47.974;7.824;2023-08-08T14:05:32;2.40;;;1.80;;
8213;SDS011;4148;47.974;7.824;2023-08-08T14:08:01;3.97;;;2.40;;
8213;SDS011;4148;47.974;7.824;2023-08-08T14:10:29;3.10;;;2.27;;
8213;SDS011;4148;47.974;7.824;2023-08-08T14:12:57;2.63;;;2.00;;
8213;SDS011;4148;47.974;7.824;2023-08-08T14:15:25;2.50;;;1.83;;
8213;SDS011;4148;47.974;7.824;2023-08-08T14:17:52;3.07;;;1.80;;
8213;SDS011;4148;47.974;7.824;2023-08-08T14:20:20;2.50;;;1.80;;
8213;SDS011;4148;47.974;7.824;2023-08-08T14:22:48;2.50;;;1.90;;
8213;SDS011;4148;47.974;7.824;2023-08-08T14:25:17;3.60;;;2.67;;
8213;SDS011;4148;47.974;7.824;2023-08-08T14:27:45;2.93;;;2.20;;
8213;SDS011;4148;47.974;7.824;2023-08-08T14:30:13;3.30;;;2.33;;
8213;SDS011;4148;47.974;7.824;2023-08-08T14:32:41;5.03;;;3.17;;
8213;SDS011;4148;47.974;7.824;2023-08-08T14:35:09;4.43;;;3.70;;
8213;SDS011;4148;47.974;7.824;2023-08-08T14:37:39;4.77;;;4.00;;
8213;SDS011;4148;47.974;7.824;2023-08-08T14:40:08;4.20;;;3.73;;
8213;SDS011;4148;47.974;7.824;2023-08-08T14:42:37;6.63;;;3.80;;
8213;SDS011;4148;47.974;7.824;2023-08-08T14:45:06;7.33;;;3.50;;
8213;SDS011;4148;47.974;7.824;2023-08-08T14:47:34;3.03;;;2.20;;
8213;SDS011;4148;47.974;7.824;2023-08-08T14:50:02;5.70;;;2.50;;
8213;SDS011;4148;47.974;7.824;2023-08-08T14:52:31;2.60;;;2.20;;
8213;SDS011;4148;47.974;7.824;2023-08-08T14:54:58;5.40;;;2.40;;
8213;SDS011;4148;47.974;7.824;2023-08-08T14:57:26;3.87;;;2.20;;
8213;SDS011;4148;47.974;7.824;2023-08-08T14:59:57;4.80;;;2.40;;
8213;SDS011;4148;47.974;7.824;2023-08-08T15:02:25;3.70;;;2.20;;
8213;SDS011;4148;47.974;7.824;2023-08-08T15:04:53;2.90;;;2.60;;
8213;SDS011;4148;47.974;7.824;2023-08-08T15:07:21;4.33;;;2.57;;
8213;SDS011;4148;47.974;7.824;2023-08-08T15:09:49;4.30;;;2.93;;
8213;SDS011;4148;47.974;7.824;2023-08-08T15:12:17;9.10;;;3.03;;
8213;SDS011;4148;47.974;7.824;2023-08-08T15:14:45;3.67;;;2.43;;
8213;SDS011;4148;47.974;7.824;2023-08-08T15:17:16;4.63;;;3.30;;
8213;SDS011;4148;47.974;7.824;2023-08-08T15:19:44;4.87;;;3.27;;
8213;SDS011;4148;47.974;7.824;2023-08-08T15:22:12;5.57;;;2.90;;
8213;SDS011;4148;47.974;7.824;2023-08-08T15:24:40;4.13;;;3.20;;